createdAt,value
2018-05-16T00:01:55.272Z,2.10
2018-05-16T00:04:22.007Z,1.50
2018-05-16T00:06:48.997Z,1.90
2018-05-16T00:09:15.934Z,1.87
2018-05-16T00:11:42.697Z,2.30
2018-05-16T00:14:09.536Z,1.60
2018-05-16T00:16:36.502Z,3.47
2018-05-16T00:19:04.248Z,1.43
2018-05-16T00:21:31.079Z,1.50
2018-05-16T00:23:58.040Z,1.57
2018-05-16T00:26:24.874Z,1.93
2018-05-16T00:28:51.822Z,1.10
2018-05-16T00:31:18.566Z,2.67
2018-05-16T00:33:45.407Z,2.90
2018-05-16T00:36:12.367Z,2.83
2018-05-16T00:38:39.208Z,1.60
2018-05-16T00:41:06.033Z,2.50
2018-05-16T00:43:32.867Z,2.07
2018-05-16T00:45:59.848Z,1.33
2018-05-16T00:48:26.685Z,1.47
2018-05-16T00:51:05.665Z,1.30
2018-05-16T00:53:33.245Z,1.53
2018-05-16T00:56:00.127Z,1.43
2018-05-16T00:58:26.896Z,2.93
2018-05-16T01:00:53.808Z,2.00
2018-05-16T01:03:20.964Z,2.47
2018-05-16T01:05:47.750Z,2.37
2018-05-16T01:08:15.345Z,1.67
2018-05-16T01:10:42.190Z,2.77
2018-05-16T01:13:09.159Z,2.27
2018-05-16T01:15:36.007Z,2.33
2018-05-16T01:18:02.835Z,2.57
2018-05-16T01:20:29.823Z,2.13
2018-05-16T01:22:56.864Z,2.83
2018-05-16T01:25:23.754Z,3.00
2018-05-16T01:27:50.511Z,1.63
2018-05-16T01:30:17.503Z,2.50
2018-05-16T01:32:44.330Z,1.40
2018-05-16T01:35:11.276Z,2.70
2018-05-16T01:37:38.120Z,2.43
2018-05-16T01:40:04.992Z,2.63
2018-05-16T01:42:32.641Z,2.83
2018-05-16T01:44:59.410Z,2.43
2018-05-16T01:47:27.145Z,1.57
2018-05-16T01:49:54.095Z,1.53
2018-05-16T01:52:20.932Z,4.30
2018-05-16T01:54:47.875Z,3.00
2018-05-16T01:57:14.723Z,1.53
2018-05-16T01:59:41.494Z,2.03
2018-05-16T02:02:09.129Z,1.43
2018-05-16T02:04:36.180Z,1.60
2018-05-16T02:07:02.898Z,1.70
2018-05-16T02:09:29.686Z,2.43
2018-05-16T02:11:57.230Z,1.70
2018-05-16T02:14:24.044Z,1.57
2018-05-16T02:16:50.877Z,2.60
2018-05-16T02:19:17.633Z,1.73
2018-05-16T02:21:44.419Z,2.47
2018-05-16T02:24:11.153Z,1.53
2018-05-16T02:26:37.986Z,3.10
2018-05-16T02:29:04.933Z,1.87
2018-05-16T02:31:31.777Z,3.27
2018-05-16T02:33:58.731Z,3.70
2018-05-16T02:36:25.783Z,1.50
2018-05-16T02:38:52.835Z,2.83
2018-05-16T02:41:19.571Z,2.60
2018-05-16T02:43:46.394Z,2.17
2018-05-16T02:46:13.258Z,1.83
2018-05-16T02:48:40.212Z,2.40
2018-05-16T02:51:07.019Z,3.60
2018-05-16T02:53:33.762Z,2.37
2018-05-16T02:56:00.640Z,1.60
2018-05-16T02:58:27.693Z,1.77
2018-05-16T03:00:54.530Z,2.17
2018-05-16T03:03:21.377Z,2.57
2018-05-16T03:05:48.333Z,1.67
2018-05-16T03:08:15.281Z,2.20
2018-05-16T03:10:42.022Z,1.70
2018-05-16T03:13:08.833Z,2.87
2018-05-16T03:15:35.810Z,2.27
2018-05-16T03:18:02.649Z,1.87
2018-05-16T03:20:30.416Z,1.80
2018-05-16T03:22:57.236Z,3.37
2018-05-16T03:25:24.216Z,2.97
2018-05-16T03:27:51.264Z,4.20
2018-05-16T03:30:18.089Z,1.67
2018-05-16T03:32:44.954Z,2.60
2018-05-16T03:35:11.708Z,2.87
2018-05-16T03:37:39.277Z,3.77
2018-05-16T03:40:07.035Z,2.40
2018-05-16T03:42:34.885Z,3.43
2018-05-16T03:45:01.670Z,2.47
2018-05-16T03:47:29.197Z,2.93
2018-05-16T03:49:56.146Z,2.50
2018-05-16T03:52:22.981Z,2.90
2018-05-16T03:54:49.867Z,3.17
2018-05-16T03:57:29.334Z,4.40
2018-05-16T04:00:08.298Z,2.93
2018-05-16T04:02:47.075Z,1.93
2018-05-16T04:05:15.342Z,2.67
2018-05-16T04:07:42.982Z,4.50
2018-05-16T04:10:09.885Z,2.10
2018-05-16T04:12:36.618Z,2.07
2018-05-16T04:15:03.395Z,2.07
2018-05-16T04:17:33.213Z,3.03
2018-05-16T04:19:59.958Z,2.70
2018-05-16T04:22:26.804Z,2.27
2018-05-16T04:24:53.622Z,3.73
2018-05-16T04:27:20.694Z,2.13
2018-05-16T04:29:47.439Z,1.70
2018-05-16T04:32:14.383Z,1.60
2018-05-16T04:34:41.457Z,2.30
2018-05-16T04:37:08.514Z,3.27
2018-05-16T04:39:35.280Z,4.40
2018-05-16T04:42:03.100Z,2.00
2018-05-16T04:44:29.828Z,7.97
2018-05-16T04:46:56.788Z,24.13
2018-05-16T04:49:23.560Z,18.07
2018-05-16T04:51:50.367Z,12.37
2018-05-16T04:54:17.140Z,9.03
2018-05-16T04:56:44.168Z,8.17
2018-05-16T04:59:11.220Z,9.27
2018-05-16T05:01:38.066Z,9.23
2018-05-16T05:04:04.936Z,7.77
2018-05-16T05:06:32.490Z,5.90
2018-05-16T05:08:59.469Z,3.93
2018-05-16T05:11:27.074Z,5.53
2018-05-16T05:13:53.897Z,4.63
2018-05-16T05:16:20.739Z,3.80
2018-05-16T05:18:47.633Z,3.57
2018-05-16T05:21:15.845Z,3.30
2018-05-16T05:23:43.433Z,4.47
2018-05-16T05:26:10.220Z,2.83
2018-05-16T05:28:36.958Z,3.60
2018-05-16T05:31:05.315Z,4.30
2018-05-16T05:33:32.268Z,4.77
2018-05-16T05:35:59.219Z,7.53
2018-05-16T05:38:26.187Z,5.20
2018-05-16T05:40:53.212Z,6.10
2018-05-16T05:43:20.169Z,4.70
2018-05-16T05:45:47.815Z,4.13
2018-05-16T05:48:14.662Z,4.23
2018-05-16T05:50:41.507Z,4.90
2018-05-16T05:53:08.351Z,5.00
2018-05-16T05:55:35.409Z,4.70
2018-05-16T05:58:02.360Z,5.13
2018-05-16T06:00:29.275Z,5.47
2018-05-16T06:02:56.010Z,4.50
2018-05-16T06:05:23.076Z,5.50
2018-05-16T06:07:50.524Z,6.97
2018-05-16T06:10:17.502Z,6.87
2018-05-16T06:12:44.389Z,6.47
2018-05-16T06:15:11.904Z,10.17
2018-05-16T06:17:38.721Z,7.53
2018-05-16T06:20:05.599Z,9.43
2018-05-16T06:22:32.434Z,8.93
2018-05-16T06:24:59.288Z,9.43
2018-05-16T06:27:26.381Z,11.73
2018-05-16T06:29:53.893Z,8.50
2018-05-16T06:32:20.734Z,8.30
2018-05-16T06:34:47.581Z,7.23
2018-05-16T06:37:14.379Z,6.63
2018-05-16T06:39:42.088Z,7.90
2018-05-16T06:42:08.931Z,6.87
2018-05-16T06:44:35.780Z,8.40
2018-05-16T06:47:02.836Z,10.23
2018-05-16T06:49:29.784Z,10.23
2018-05-16T06:51:56.629Z,7.70
2018-05-16T06:54:23.465Z,9.80
2018-05-16T06:56:50.414Z,6.53
2018-05-16T06:59:17.255Z,9.10
2018-05-16T07:01:44.205Z,10.90
2018-05-16T07:04:11.241Z,7.97
2018-05-16T07:06:38.788Z,6.53
2018-05-16T07:09:05.634Z,8.90
2018-05-16T07:11:32.350Z,5.40
2018-05-16T07:14:00.076Z,8.87
2018-05-16T07:16:27.125Z,8.50
2018-05-16T07:18:54.172Z,6.00
2018-05-16T07:21:21.124Z,4.57
2018-05-16T07:23:48.171Z,4.70
2018-05-16T07:26:14.906Z,4.97
2018-05-16T07:28:41.700Z,4.13
2018-05-16T07:31:09.313Z,4.90
2018-05-16T07:33:36.266Z,3.03
2018-05-16T07:36:03.316Z,3.23
2018-05-16T07:38:30.152Z,2.80
2018-05-16T07:40:57.715Z,2.57
2018-05-16T07:43:24.538Z,1.97
2018-05-16T07:45:51.516Z,1.93
2018-05-16T07:48:18.355Z,3.30
2018-05-16T07:50:45.368Z,2.47
2018-05-16T07:53:13.069Z,2.50
2018-05-16T07:55:39.814Z,5.23
2018-05-16T07:58:06.763Z,3.67
2018-05-16T08:00:33.700Z,2.93
2018-05-16T08:03:01.681Z,3.47
2018-05-16T08:05:28.731Z,2.50
2018-05-16T08:07:55.579Z,3.70
2018-05-16T08:10:22.516Z,4.90
2018-05-16T08:12:49.309Z,4.40
2018-05-16T08:15:25.932Z,5.37
2018-05-16T08:17:56.567Z,6.20
2018-05-16T08:20:23.642Z,5.43
2018-05-16T08:22:50.692Z,4.63
2018-05-16T08:25:18.336Z,5.67
2018-05-16T08:27:45.103Z,3.10
2018-05-16T08:30:12.748Z,3.47
2018-05-16T08:32:40.506Z,4.37
2018-05-16T08:35:07.293Z,4.60
2018-05-16T08:37:35.021Z,4.70
2018-05-16T08:40:01.859Z,4.10
2018-05-16T08:42:28.710Z,5.70
2018-05-16T08:44:55.480Z,4.43
2018-05-16T08:47:22.287Z,4.57
2018-05-16T08:49:49.052Z,3.50
2018-05-16T08:52:15.780Z,3.53
2018-05-16T08:54:42.700Z,5.67
2018-05-16T08:57:09.568Z,4.93
2018-05-16T08:59:36.385Z,4.00
2018-05-16T09:02:03.257Z,4.07
2018-05-16T09:04:30.033Z,5.70
2018-05-16T09:06:57.058Z,4.30
2018-05-16T09:09:24.106Z,3.80
2018-05-16T09:11:50.944Z,4.50
2018-05-16T09:14:25.521Z,5.57
2018-05-16T09:16:52.526Z,3.90
2018-05-16T09:19:19.363Z,4.40
2018-05-16T09:21:46.318Z,4.70
2018-05-16T09:24:13.081Z,4.27
2018-05-16T09:26:40.002Z,3.67
2018-05-16T09:29:07.054Z,3.33
2018-05-16T09:31:35.390Z,3.87
2018-05-16T09:34:02.183Z,4.23
2018-05-16T09:36:29.126Z,3.87
2018-05-16T09:38:55.936Z,3.70
2018-05-16T09:41:22.706Z,3.70
2018-05-16T09:43:49.530Z,2.90
2018-05-16T09:46:16.292Z,3.70
2018-05-16T09:48:43.029Z,4.30
2018-05-16T09:51:09.993Z,4.23
2018-05-16T09:53:36.828Z,2.73
2018-05-16T09:56:03.767Z,2.00
2018-05-16T09:58:30.832Z,3.23
2018-05-16T10:00:57.882Z,2.37
2018-05-16T10:03:24.830Z,4.90
2018-05-16T10:05:51.546Z,2.03
2018-05-16T10:08:18.386Z,3.90
2018-05-16T10:10:45.422Z,2.03
2018-05-16T10:13:12.995Z,2.43
2018-05-16T10:15:50.007Z,2.13
2018-05-16T10:18:18.523Z,3.23
2018-05-16T10:20:47.114Z,3.50
2018-05-16T10:23:14.737Z,3.43
2018-05-16T10:25:41.493Z,2.17
2018-05-16T10:28:08.195Z,4.60
2018-05-16T10:30:34.961Z,1.30
2018-05-16T10:33:01.712Z,1.90
2018-05-16T10:35:28.865Z,2.77
2018-05-16T10:37:55.704Z,3.23
2018-05-16T10:40:22.550Z,3.50
2018-05-16T10:42:49.390Z,1.93
2018-05-16T10:45:16.280Z,5.13
2018-05-16T10:47:43.903Z,3.57
2018-05-16T10:50:11.776Z,3.57
2018-05-16T10:52:38.531Z,3.03
2018-05-16T10:55:05.343Z,3.20
2018-05-16T10:57:32.204Z,3.53
2018-05-16T10:59:59.029Z,3.67
2018-05-16T11:02:25.810Z,2.07
2018-05-16T11:04:52.852Z,2.97
2018-05-16T11:07:20.502Z,4.47
2018-05-16T11:09:47.458Z,1.83
2018-05-16T11:12:14.264Z,3.27
2018-05-16T11:15:02.116Z,2.67
2018-05-16T11:17:29.092Z,3.93
2018-05-16T11:19:56.075Z,3.00
2018-05-16T11:22:23.859Z,3.60
2018-05-16T11:24:51.672Z,2.80
2018-05-16T11:27:18.578Z,2.43
2018-05-16T11:29:45.354Z,3.53
2018-05-16T11:32:12.124Z,3.67
2018-05-16T11:34:38.939Z,2.80
2018-05-16T11:37:05.661Z,3.17
2018-05-16T11:39:32.633Z,4.00
2018-05-16T11:41:59.587Z,2.30
2018-05-16T11:44:26.398Z,3.10
2018-05-16T11:46:53.265Z,2.13
2018-05-16T11:49:20.034Z,3.63
2018-05-16T11:51:46.734Z,2.10
2018-05-16T11:54:13.807Z,4.40
2018-05-16T11:56:44.747Z,2.10
2018-05-16T11:59:47.936Z,2.80
2018-05-16T12:02:16.576Z,2.20
2018-05-16T12:04:59.526Z,1.70
2018-05-16T12:07:35.645Z,1.87
2018-05-16T12:10:02.565Z,2.10
2018-05-16T12:12:29.401Z,1.13
2018-05-16T12:17:57.189Z,1.77
2018-05-16T12:20:24.166Z,2.70
2018-05-16T12:22:51.198Z,2.00
2018-05-16T12:25:18.032Z,3.67
2018-05-16T12:27:44.878Z,1.47
2018-05-16T12:30:11.823Z,1.90
2018-05-16T12:32:38.882Z,2.90
2018-05-16T12:35:05.718Z,2.67
2018-05-16T12:37:32.574Z,1.83
2018-05-16T12:39:59.416Z,1.43
2018-05-16T12:42:27.155Z,2.23
2018-05-16T12:44:53.981Z,3.30
2018-05-16T12:47:21.551Z,3.63
2018-05-16T12:49:48.439Z,3.47
2018-05-16T12:52:15.382Z,1.70
2018-05-16T12:54:42.208Z,3.57
2018-05-16T12:57:09.178Z,3.53
2018-05-16T12:59:35.941Z,2.80
2018-05-16T13:02:02.966Z,4.13
2018-05-16T13:04:30.016Z,3.40
2018-05-16T13:06:57.074Z,5.33
2018-05-16T13:09:23.837Z,3.10
2018-05-16T13:11:51.443Z,2.73
2018-05-16T13:14:24.198Z,2.57
2018-05-16T13:16:51.725Z,3.73
2018-05-16T13:19:18.654Z,1.83
2018-05-16T13:21:45.478Z,2.93
2018-05-16T13:24:13.063Z,3.00
2018-05-16T13:26:39.906Z,3.13
2018-05-16T13:29:06.744Z,2.33
2018-05-16T13:31:33.807Z,3.53
2018-05-16T13:34:00.625Z,3.73
2018-05-16T13:36:27.394Z,3.13
2018-05-16T13:38:54.445Z,2.60
2018-05-16T13:41:21.494Z,2.13
2018-05-16T13:43:48.340Z,3.07
2018-05-16T13:46:15.152Z,3.17
2018-05-16T13:48:42.031Z,5.63
2018-05-16T13:51:08.744Z,2.13
2018-05-16T13:53:35.527Z,2.90
2018-05-16T13:56:02.346Z,2.97
2018-05-16T13:58:29.197Z,2.93
2018-05-16T14:00:56.016Z,2.37
2018-05-16T14:03:23.002Z,3.10
2018-05-16T14:05:49.893Z,3.07
2018-05-16T14:08:16.610Z,2.90
2018-05-16T14:10:43.408Z,1.87
2018-05-16T14:13:10.264Z,3.87
2018-05-16T14:18:43.722Z,4.47
2018-05-16T14:21:10.505Z,2.67
2018-05-16T14:23:37.271Z,2.10
2018-05-16T14:26:04.254Z,2.53
2018-05-16T14:28:31.731Z,2.50
2018-05-16T14:30:59.311Z,2.73
2018-05-16T14:33:26.298Z,1.93
2018-05-16T14:35:53.137Z,2.17
2018-05-16T14:38:20.094Z,4.70
2018-05-16T14:40:48.162Z,3.93
2018-05-16T14:43:15.720Z,3.17
2018-05-16T14:45:42.673Z,2.90
2018-05-16T14:48:09.486Z,2.47
2018-05-16T14:50:36.248Z,5.53
2018-05-16T14:53:03.208Z,3.23
2018-05-16T14:55:30.129Z,3.40
2018-05-16T14:57:58.413Z,3.87
2018-05-16T15:00:25.244Z,3.07
2018-05-16T15:02:52.122Z,5.87
2018-05-16T15:05:19.071Z,4.00
2018-05-16T15:07:45.806Z,4.90
2018-05-16T15:10:12.656Z,3.63
2018-05-16T15:12:39.605Z,3.40
2018-05-16T15:15:38.424Z,4.00
2018-05-16T15:18:05.214Z,4.37
2018-05-16T15:20:31.980Z,2.40
2018-05-16T15:22:58.789Z,4.20
2018-05-16T15:25:25.976Z,2.90
2018-05-16T15:27:52.930Z,4.63
2018-05-16T15:30:19.605Z,2.50
2018-05-16T15:32:47.074Z,3.37
2018-05-16T15:35:14.498Z,5.27
2018-05-16T15:37:41.429Z,3.83
2018-05-16T15:40:08.383Z,4.43
2018-05-16T15:42:35.197Z,3.83
2018-05-16T15:45:02.120Z,5.73
2018-05-16T15:47:29.626Z,3.00
2018-05-16T15:49:56.479Z,5.10
2018-05-16T15:52:23.214Z,5.90
2018-05-16T15:54:50.039Z,3.37
2018-05-16T15:57:16.776Z,4.90
2018-05-16T15:59:43.696Z,4.73
2018-05-16T16:02:11.233Z,2.63
2018-05-16T16:04:37.936Z,5.93
2018-05-16T16:07:04.648Z,3.73
2018-05-16T16:09:32.086Z,2.90
2018-05-16T16:11:59.000Z,4.63
2018-05-16T16:14:54.179Z,5.40
2018-05-16T16:17:20.953Z,3.77
2018-05-16T16:19:48.488Z,3.50
2018-05-16T16:22:15.256Z,2.20
2018-05-16T16:24:42.210Z,4.47
2018-05-16T16:27:08.926Z,2.90
2018-05-16T16:29:35.771Z,2.40
2018-05-16T16:32:02.751Z,1.97
2018-05-16T16:34:29.590Z,3.40
2018-05-16T16:36:56.277Z,1.90
2018-05-16T16:39:23.994Z,2.77
2018-05-16T16:41:50.839Z,2.50
2018-05-16T16:44:17.657Z,3.67
2018-05-16T16:46:44.639Z,3.33
2018-05-16T16:49:11.368Z,3.47
2018-05-16T16:51:38.215Z,2.53
2018-05-16T16:54:04.883Z,3.93
2018-05-16T16:56:31.538Z,3.57
2018-05-16T16:58:58.948Z,3.53
2018-05-16T17:01:25.769Z,2.40
2018-05-16T17:03:52.754Z,4.67
2018-05-16T17:06:19.698Z,4.00
2018-05-16T17:08:46.418Z,3.17
2018-05-16T17:11:20.373Z,2.70
2018-05-16T17:13:47.187Z,4.40
2018-05-16T17:19:17.647Z,2.70
2018-05-16T17:21:44.481Z,2.13
2018-05-16T17:24:11.432Z,5.13
2018-05-16T17:26:38.114Z,3.70
2018-05-16T17:29:05.550Z,2.73
2018-05-16T17:31:32.371Z,2.30
2018-05-16T17:34:00.050Z,4.93
2018-05-16T17:36:27.096Z,1.87
2018-05-16T17:38:54.043Z,1.93
2018-05-16T17:41:20.705Z,4.43
2018-05-16T17:43:47.398Z,2.50
2018-05-16T17:46:14.495Z,2.40
2018-05-16T17:48:41.939Z,3.93
2018-05-16T17:51:08.658Z,2.40
2018-05-16T17:53:36.498Z,3.57
2018-05-16T17:56:03.979Z,4.07
2018-05-16T17:58:30.945Z,2.20
2018-05-16T18:00:57.655Z,2.40
2018-05-16T18:03:24.388Z,1.73
2018-05-16T18:05:51.887Z,3.33
2018-05-16T18:08:18.839Z,4.20
2018-05-16T18:10:45.799Z,2.97
2018-05-16T18:19:37.809Z,1.67
2018-05-16T18:22:05.326Z,2.10
2018-05-16T18:24:32.280Z,3.40
2018-05-16T18:26:59.227Z,3.27
2018-05-16T18:29:25.913Z,3.43
2018-05-16T18:31:53.944Z,3.00
2018-05-16T18:34:20.855Z,1.57
2018-05-16T18:36:47.840Z,3.57
2018-05-16T18:39:14.571Z,2.73
2018-05-16T18:41:41.254Z,1.97
2018-05-16T18:44:08.898Z,3.10
2018-05-16T18:46:36.772Z,3.27
2018-05-16T18:49:03.589Z,2.63
2018-05-16T18:51:31.976Z,2.93
2018-05-16T18:53:59.432Z,2.63
2018-05-16T18:56:26.150Z,4.27
2018-05-16T18:59:10.278Z,2.30
2018-05-16T19:01:37.994Z,2.93
2018-05-16T19:04:04.681Z,4.47
2018-05-16T19:06:32.266Z,3.07
2018-05-16T19:08:59.032Z,2.53
2018-05-16T19:11:25.758Z,2.47
2018-05-16T19:13:52.458Z,5.70
2018-05-16T19:19:31.057Z,3.03
2018-05-16T19:21:57.883Z,3.97
2018-05-16T19:24:24.639Z,2.20
2018-05-16T19:26:51.600Z,3.10
2018-05-16T19:29:18.551Z,1.93
2018-05-16T19:31:45.497Z,3.17
2018-05-16T19:34:12.472Z,2.00
2018-05-16T19:36:40.209Z,1.60
2018-05-16T19:39:06.902Z,1.73
2018-05-16T19:41:33.692Z,3.07
2018-05-16T19:44:00.639Z,1.53
2018-05-16T19:46:27.646Z,2.73
2018-05-16T19:48:55.074Z,2.57
2018-05-16T19:51:21.995Z,3.37
2018-05-16T19:53:49.657Z,1.80
2018-05-16T19:56:16.496Z,3.87
2018-05-16T19:58:43.252Z,1.90
2018-05-16T20:01:10.085Z,1.57
2018-05-16T20:03:36.809Z,2.00
2018-05-16T20:06:03.566Z,4.23
2018-05-16T20:08:30.414Z,1.67
2018-05-16T20:10:57.263Z,1.87
2018-05-16T20:13:23.977Z,1.57
2018-05-16T20:16:26.735Z,4.00
2018-05-16T20:21:50.954Z,1.10
2018-05-16T20:24:18.969Z,2.27
2018-05-16T20:29:59.044Z,1.80
2018-05-16T20:32:26.785Z,1.53
2018-05-16T20:34:53.653Z,1.53
2018-05-16T20:37:20.607Z,2.83
2018-05-16T20:39:47.286Z,1.83
2018-05-16T20:42:15.017Z,1.97
2018-05-16T20:44:41.852Z,2.57
2018-05-16T20:47:08.534Z,2.20
2018-05-16T20:49:35.980Z,1.43
2018-05-16T20:52:02.796Z,4.27
2018-05-16T20:54:30.585Z,2.97
2018-05-16T20:56:57.381Z,2.07
2018-05-16T20:59:24.361Z,1.60
2018-05-16T21:01:51.178Z,1.40
2018-05-16T21:04:18.050Z,3.53
2018-05-16T21:06:44.889Z,1.67
2018-05-16T21:09:11.815Z,2.43
2018-05-16T21:11:38.672Z,1.50
2018-05-16T21:14:05.428Z,2.00
2018-05-16T21:19:53.811Z,1.37
2018-05-16T21:22:20.562Z,2.43
2018-05-16T21:24:47.361Z,1.83
2018-05-16T21:27:14.138Z,1.40
2018-05-16T21:29:40.913Z,2.73
2018-05-16T21:32:08.471Z,2.40
2018-05-16T21:34:35.961Z,2.27
2018-05-16T21:37:03.016Z,1.80
2018-05-16T21:39:29.783Z,5.03
2018-05-16T21:41:56.605Z,2.50
2018-05-16T21:44:23.455Z,2.07
2018-05-16T21:46:50.228Z,1.83
2018-05-16T21:49:17.175Z,4.63
2018-05-16T21:51:44.223Z,2.10
2018-05-16T21:54:11.065Z,2.30
2018-05-16T21:56:37.962Z,1.50
2018-05-16T22:01:38.459Z,3.00
2018-05-16T22:04:05.409Z,1.83
2018-05-16T22:06:32.459Z,2.43
2018-05-16T22:08:59.303Z,6.00
2018-05-16T22:11:26.053Z,2.70
2018-05-16T22:13:53.087Z,2.43
2018-05-16T22:16:20.145Z,2.47
2018-05-16T22:18:46.978Z,3.07
2018-05-16T22:21:13.826Z,2.40
2018-05-16T22:23:40.634Z,3.13
2018-05-16T22:26:07.489Z,1.83
2018-05-16T22:28:34.359Z,2.23
2018-05-16T22:31:07.355Z,2.43
2018-05-16T22:33:40.448Z,2.83
2018-05-16T22:36:13.328Z,3.10
2018-05-16T22:38:46.220Z,4.20
2018-05-16T22:41:19.107Z,4.17
2018-05-16T22:43:51.984Z,2.93
2018-05-16T22:46:18.937Z,3.40
2018-05-16T22:48:45.742Z,4.03
2018-05-16T22:51:12.632Z,4.03
2018-05-16T22:53:39.398Z,3.70
2018-05-16T22:56:06.321Z,2.63
2018-05-16T22:58:33.158Z,4.30
2018-05-16T23:00:59.977Z,2.27
2018-05-16T23:03:26.850Z,2.87
2018-05-16T23:05:53.690Z,2.17
2018-05-16T23:08:20.477Z,3.27
2018-05-16T23:10:48.996Z,2.70
2018-05-16T23:13:15.866Z,2.47
2018-05-16T23:15:42.712Z,3.07
2018-05-16T23:18:10.389Z,3.50
2018-05-16T23:20:37.226Z,2.20
2018-05-16T23:23:04.080Z,3.53
2018-05-16T23:25:31.019Z,2.50
2018-05-16T23:27:57.781Z,2.07
2018-05-16T23:30:24.562Z,2.77
2018-05-16T23:32:51.654Z,3.93
2018-05-16T23:35:18.593Z,3.27
2018-05-16T23:37:45.652Z,2.97
2018-05-16T23:40:12.701Z,2.20
2018-05-16T23:42:39.478Z,2.13
2018-05-16T23:45:07.093Z,2.77
2018-05-16T23:47:34.578Z,5.30
2018-05-16T23:50:01.621Z,2.73
2018-05-16T23:52:28.565Z,2.97
2018-05-16T23:54:55.613Z,1.97
2018-05-16T23:57:22.424Z,3.67
2018-05-16T23:59:49.510Z,2.00
